sensor_id;sensor_type;location;lat;lon;timestamp;P1;durP1;ratioP1;P2;durP2;ratioP2
51082;SDS011;37131;42.694;23.350;2022-08-25T00:00:57;22.88;;;5.88;;
51082;SDS011;37131;42.694;23.350;2022-08-25T00:03:22;18.00;;;5.40;;
51082;SDS011;37131;42.694;23.350;2022-08-25T00:05:47;16.02;;;5.03;;
51082;SDS011;37131;42.694;23.350;2022-08-25T00:08:13;32.13;;;6.63;;
51082;SDS011;37131;42.694;23.350;2022-08-25T00:10:38;18.58;;;5.50;;
51082;SDS011;37131;42.694;23.350;2022-08-25T00:13:04;17.33;;;5.53;;
51082;SDS011;37131;42.694;23.350;2022-08-25T00:15:32;16.40;;;5.68;;
51082;SDS011;37131;42.694;23.350;2022-08-25T00:17:58;21.08;;;5.18;;
51082;SDS011;37131;42.694;23.350;2022-08-25T00:20:25;18.52;;;5.78;;
51082;SDS011;37131;42.694;23.350;2022-08-25T00:22:52;20.17;;;5.60;;
51082;SDS011;37131;42.694;23.350;2022-08-25T00:25:17;13.10;;;4.95;;
51082;SDS011;37131;42.694;23.350;2022-08-25T00:27:43;18.02;;;5.28;;
51082;SDS011;37131;42.694;23.350;2022-08-25T00:30:09;20.38;;;5.88;;
51082;SDS011;37131;42.694;23.350;2022-08-25T00:32:36;22.98;;;6.07;;
51082;SDS011;37131;42.694;23.350;2022-08-25T00:35:02;9.60;;;4.55;;
51082;SDS011;37131;42.694;23.350;2022-08-25T00:37:28;18.83;;;5.68;;
51082;SDS011;37131;42.694;23.350;2022-08-25T00:39:53;19.02;;;5.90;;
51082;SDS011;37131;42.694;23.350;2022-08-25T00:42:21;16.27;;;4.93;;
51082;SDS011;37131;42.694;23.350;2022-08-25T00:44:47;18.92;;;5.72;;
51082;SDS011;37131;42.694;23.350;2022-08-25T00:47:12;18.00;;;5.13;;
51082;SDS011;37131;42.694;23.350;2022-08-25T00:49:39;18.75;;;5.50;;
51082;SDS011;37131;42.694;23.350;2022-08-25T00:52:09;17.35;;;4.90;;
51082;SDS011;37131;42.694;23.350;2022-08-25T00:54:46;9.55;;;4.78;;
51082;SDS011;37131;42.694;23.350;2022-08-25T00:57:17;22.95;;;5.07;;
51082;SDS011;37131;42.694;23.350;2022-08-25T00:59:48;17.45;;;5.80;;
51082;SDS011;37131;42.694;23.350;2022-08-25T01:02:14;14.45;;;5.30;;
51082;SDS011;37131;42.694;23.350;2022-08-25T01:04:41;15.13;;;5.25;;
51082;SDS011;37131;42.694;23.350;2022-08-25T01:07:07;20.20;;;4.90;;
51082;SDS011;37131;42.694;23.350;2022-08-25T01:09:33;20.73;;;6.15;;
51082;SDS011;37131;42.694;23.350;2022-08-25T01:12:00;9.68;;;4.30;;
51082;SDS011;37131;42.694;23.350;2022-08-25T01:14:26;22.25;;;5.60;;
51082;SDS011;37131;42.694;23.350;2022-08-25T01:16:55;11.45;;;4.47;;
51082;SDS011;37131;42.694;23.350;2022-08-25T01:19:22;16.50;;;5.00;;
51082;SDS011;37131;42.694;23.350;2022-08-25T01:21:52;20.38;;;5.53;;
51082;SDS011;37131;42.694;23.350;2022-08-25T01:24:27;19.27;;;5.82;;
51082;SDS011;37131;42.694;23.350;2022-08-25T01:27:02;16.75;;;5.43;;
51082;SDS011;37131;42.694;23.350;2022-08-25T01:29:28;20.17;;;5.75;;
51082;SDS011;37131;42.694;23.350;2022-08-25T01:31:58;22.92;;;6.68;;
51082;SDS011;37131;42.694;23.350;2022-08-25T01:34:27;21.15;;;6.45;;
51082;SDS011;37131;42.694;23.350;2022-08-25T01:36:56;21.73;;;6.65;;
51082;SDS011;37131;42.694;23.350;2022-08-25T01:39:23;20.10;;;6.40;;
51082;SDS011;37131;42.694;23.350;2022-08-25T01:44:40;20.17;;;6.30;;
51082;SDS011;37131;42.694;23.350;2022-08-25T01:47:07;15.48;;;5.80;;
51082;SDS011;37131;42.694;23.350;2022-08-25T01:49:33;22.10;;;6.05;;
51082;SDS011;37131;42.694;23.350;2022-08-25T01:52:00;23.27;;;6.63;;
51082;SDS011;37131;42.694;23.350;2022-08-25T01:54:26;14.13;;;5.32;;
51082;SDS011;37131;42.694;23.350;2022-08-25T01:56:51;18.83;;;5.80;;
51082;SDS011;37131;42.694;23.350;2022-08-25T01:59:17;15.23;;;5.35;;
51082;SDS011;37131;42.694;23.350;2022-08-25T02:01:45;14.88;;;4.93;;
51082;SDS011;37131;42.694;23.350;2022-08-25T02:04:10;11.35;;;4.60;;
51082;SDS011;37131;42.694;23.350;2022-08-25T02:06:36;12.63;;;5.05;;
51082;SDS011;37131;42.694;23.350;2022-08-25T02:09:04;19.67;;;5.40;;
51082;SDS011;37131;42.694;23.350;2022-08-25T02:11:32;16.00;;;5.25;;
51082;SDS011;37131;42.694;23.350;2022-08-25T02:14:00;9.80;;;4.75;;
51082;SDS011;37131;42.694;23.350;2022-08-25T02:16:26;17.98;;;5.53;;
51082;SDS011;37131;42.694;23.350;2022-08-25T02:18:54;14.80;;;4.60;;
51082;SDS011;37131;42.694;23.350;2022-08-25T02:21:21;18.33;;;5.15;;
51082;SDS011;37131;42.694;23.350;2022-08-25T02:23:46;21.33;;;5.57;;
51082;SDS011;37131;42.694;23.350;2022-08-25T02:26:12;14.48;;;4.45;;
51082;SDS011;37131;42.694;23.350;2022-08-25T02:28:43;18.58;;;5.10;;
51082;SDS011;37131;42.694;23.350;2022-08-25T02:31:10;16.58;;;4.85;;
51082;SDS011;37131;42.694;23.350;2022-08-25T02:33:36;9.52;;;3.88;;
51082;SDS011;37131;42.694;23.350;2022-08-25T02:36:02;18.42;;;4.93;;
51082;SDS011;37131;42.694;23.350;2022-08-25T02:38:28;19.35;;;4.82;;
51082;SDS011;37131;42.694;23.350;2022-08-25T02:40:57;17.45;;;4.68;;
51082;SDS011;37131;42.694;23.350;2022-08-25T02:43:24;14.07;;;4.65;;
51082;SDS011;37131;42.694;23.350;2022-08-25T02:45:51;17.98;;;5.20;;
51082;SDS011;37131;42.694;23.350;2022-08-25T02:48:17;17.42;;;4.40;;
51082;SDS011;37131;42.694;23.350;2022-08-25T02:50:47;10.07;;;4.00;;
51082;SDS011;37131;42.694;23.350;2022-08-25T02:53:15;20.95;;;5.20;;
51082;SDS011;37131;42.694;23.350;2022-08-25T02:55:41;15.02;;;5.05;;
51082;SDS011;37131;42.694;23.350;2022-08-25T02:58:07;10.50;;;3.60;;
51082;SDS011;37131;42.694;23.350;2022-08-25T03:00:33;14.32;;;4.45;;
51082;SDS011;37131;42.694;23.350;2022-08-25T03:02:58;17.73;;;5.07;;
51082;SDS011;37131;42.694;23.350;2022-08-25T03:05:24;15.95;;;4.80;;
51082;SDS011;37131;42.694;23.350;2022-08-25T03:07:49;17.08;;;4.78;;
51082;SDS011;37131;42.694;23.350;2022-08-25T03:10:15;14.10;;;3.78;;
51082;SDS011;37131;42.694;23.350;2022-08-25T03:12:42;17.85;;;4.60;;
51082;SDS011;37131;42.694;23.350;2022-08-25T03:15:10;11.10;;;3.67;;
51082;SDS011;37131;42.694;23.350;2022-08-25T03:17:40;15.65;;;4.97;;
51082;SDS011;37131;42.694;23.350;2022-08-25T03:20:05;20.40;;;5.55;;
51082;SDS011;37131;42.694;23.350;2022-08-25T03:22:32;19.00;;;4.63;;
51082;SDS011;37131;42.694;23.350;2022-08-25T03:24:57;12.55;;;3.85;;
51082;SDS011;37131;42.694;23.350;2022-08-25T03:27:43;15.30;;;4.32;;
51082;SDS011;37131;42.694;23.350;2022-08-25T03:30:08;11.18;;;3.85;;
51082;SDS011;37131;42.694;23.350;2022-08-25T03:32:35;18.27;;;4.20;;
51082;SDS011;37131;42.694;23.350;2022-08-25T03:35:00;18.85;;;5.03;;
51082;SDS011;37131;42.694;23.350;2022-08-25T03:37:26;15.77;;;4.72;;
51082;SDS011;37131;42.694;23.350;2022-08-25T03:39:52;14.02;;;4.05;;
51082;SDS011;37131;42.694;23.350;2022-08-25T03:42:17;14.20;;;4.28;;
51082;SDS011;37131;42.694;23.350;2022-08-25T03:44:43;11.73;;;3.88;;
51082;SDS011;37131;42.694;23.350;2022-08-25T03:47:09;20.55;;;5.32;;
51082;SDS011;37131;42.694;23.350;2022-08-25T03:49:34;15.18;;;4.32;;
51082;SDS011;37131;42.694;23.350;2022-08-25T03:51:59;21.90;;;5.05;;
51082;SDS011;37131;42.694;23.350;2022-08-25T03:54:25;16.65;;;4.50;;
51082;SDS011;37131;42.694;23.350;2022-08-25T03:56:51;12.07;;;4.45;;
51082;SDS011;37131;42.694;23.350;2022-08-25T03:59:16;19.48;;;5.30;;
51082;SDS011;37131;42.694;23.350;2022-08-25T04:01:43;13.70;;;4.43;;
51082;SDS011;37131;42.694;23.350;2022-08-25T04:04:10;14.98;;;4.45;;
51082;SDS011;37131;42.694;23.350;2022-08-25T04:06:37;12.45;;;4.25;;
51082;SDS011;37131;42.694;23.350;2022-08-25T04:09:03;13.40;;;4.50;;
51082;SDS011;37131;42.694;23.350;2022-08-25T04:11:29;15.43;;;5.40;;
51082;SDS011;37131;42.694;23.350;2022-08-25T04:13:56;15.00;;;4.53;;
51082;SDS011;37131;42.694;23.350;2022-08-25T04:16:24;14.95;;;4.20;;
51082;SDS011;37131;42.694;23.350;2022-08-25T04:18:54;11.98;;;4.20;;
51082;SDS011;37131;42.694;23.350;2022-08-25T04:21:20;18.90;;;4.72;;
51082;SDS011;37131;42.694;23.350;2022-08-25T04:23:48;19.02;;;4.60;;
51082;SDS011;37131;42.694;23.350;2022-08-25T04:26:16;13.25;;;4.07;;
51082;SDS011;37131;42.694;23.350;2022-08-25T04:28:43;18.90;;;4.82;;
51082;SDS011;37131;42.694;23.350;2022-08-25T04:31:09;18.40;;;4.78;;
51082;SDS011;37131;42.694;23.350;2022-08-25T04:33:36;14.70;;;4.13;;
51082;SDS011;37131;42.694;23.350;2022-08-25T04:36:03;16.00;;;4.57;;
51082;SDS011;37131;42.694;23.350;2022-08-25T04:38:30;21.00;;;5.20;;
51082;SDS011;37131;42.694;23.350;2022-08-25T04:40:57;17.88;;;4.82;;
51082;SDS011;37131;42.694;23.350;2022-08-25T04:43:28;15.48;;;4.88;;
51082;SDS011;37131;42.694;23.350;2022-08-25T04:45:54;15.80;;;4.80;;
51082;SDS011;37131;42.694;23.350;2022-08-25T04:48:20;13.25;;;4.90;;
51082;SDS011;37131;42.694;23.350;2022-08-25T04:50:46;14.30;;;4.70;;
51082;SDS011;37131;42.694;23.350;2022-08-25T04:53:11;15.40;;;4.70;;
51082;SDS011;37131;42.694;23.350;2022-08-25T04:55:41;12.25;;;4.38;;
51082;SDS011;37131;42.694;23.350;2022-08-25T04:58:07;11.30;;;4.35;;
51082;SDS011;37131;42.694;23.350;2022-08-25T05:00:33;13.68;;;4.50;;
51082;SDS011;37131;42.694;23.350;2022-08-25T05:03:00;15.88;;;4.40;;
51082;SDS011;37131;42.694;23.350;2022-08-25T05:05:26;18.83;;;4.90;;
51082;SDS011;37131;42.694;23.350;2022-08-25T05:07:51;15.88;;;5.03;;
51082;SDS011;37131;42.694;23.350;2022-08-25T05:10:18;10.02;;;3.97;;
51082;SDS011;37131;42.694;23.350;2022-08-25T05:12:44;13.75;;;4.47;;
51082;SDS011;37131;42.694;23.350;2022-08-25T05:15:10;14.00;;;4.82;;
51082;SDS011;37131;42.694;23.350;2022-08-25T05:17:55;25.15;;;5.80;;
51082;SDS011;37131;42.694;23.350;2022-08-25T05:20:21;21.45;;;5.40;;
51082;SDS011;37131;42.694;23.350;2022-08-25T05:22:46;15.70;;;4.90;;
51082;SDS011;37131;42.694;23.350;2022-08-25T05:25:12;16.50;;;5.25;;
51082;SDS011;37131;42.694;23.350;2022-08-25T05:27:38;13.48;;;4.53;;
51082;SDS011;37131;42.694;23.350;2022-08-25T05:30:05;16.27;;;5.10;;
51082;SDS011;37131;42.694;23.350;2022-08-25T05:32:31;17.27;;;5.45;;
51082;SDS011;37131;42.694;23.350;2022-08-25T05:34:56;15.05;;;4.43;;
51082;SDS011;37131;42.694;23.350;2022-08-25T05:37:22;15.50;;;4.78;;
51082;SDS011;37131;42.694;23.350;2022-08-25T05:39:47;14.60;;;5.22;;
51082;SDS011;37131;42.694;23.350;2022-08-25T05:42:13;12.90;;;4.75;;
51082;SDS011;37131;42.694;23.350;2022-08-25T05:44:38;15.05;;;4.53;;
51082;SDS011;37131;42.694;23.350;2022-08-25T05:47:04;16.50;;;5.05;;
51082;SDS011;37131;42.694;23.350;2022-08-25T05:49:29;19.67;;;4.93;;
51082;SDS011;37131;42.694;23.350;2022-08-25T05:51:54;15.20;;;4.70;;
51082;SDS011;37131;42.694;23.350;2022-08-25T05:54:20;14.20;;;4.25;;
51082;SDS011;37131;42.694;23.350;2022-08-25T05:56:45;12.90;;;4.45;;
51082;SDS011;37131;42.694;23.350;2022-08-25T05:59:11;15.52;;;4.20;;
51082;SDS011;37131;42.694;23.350;2022-08-25T06:01:36;11.80;;;4.20;;
51082;SDS011;37131;42.694;23.350;2022-08-25T06:04:20;18.40;;;5.05;;
51082;SDS011;37131;42.694;23.350;2022-08-25T06:06:46;16.30;;;4.68;;
51082;SDS011;37131;42.694;23.350;2022-08-25T06:09:12;14.75;;;4.50;;
51082;SDS011;37131;42.694;23.350;2022-08-25T06:11:38;10.00;;;4.43;;
51082;SDS011;37131;42.694;23.350;2022-08-25T06:14:05;17.63;;;5.22;;
51082;SDS011;37131;42.694;23.350;2022-08-25T06:16:32;20.88;;;5.20;;
51082;SDS011;37131;42.694;23.350;2022-08-25T06:18:57;10.98;;;4.10;;
51082;SDS011;37131;42.694;23.350;2022-08-25T06:21:23;15.07;;;5.05;;
51082;SDS011;37131;42.694;23.350;2022-08-25T06:23:48;17.17;;;5.10;;
51082;SDS011;37131;42.694;23.350;2022-08-25T06:26:14;18.90;;;5.07;;
51082;SDS011;37131;42.694;23.350;2022-08-25T06:28:39;13.80;;;4.50;;
51082;SDS011;37131;42.694;23.350;2022-08-25T06:31:05;19.35;;;5.65;;
51082;SDS011;37131;42.694;23.350;2022-08-25T06:33:31;14.90;;;4.70;;
51082;SDS011;37131;42.694;23.350;2022-08-25T06:35:56;13.68;;;4.93;;
51082;SDS011;37131;42.694;23.350;2022-08-25T06:38:22;13.05;;;4.60;;
51082;SDS011;37131;42.694;23.350;2022-08-25T06:40:48;14.70;;;5.00;;
51082;SDS011;37131;42.694;23.350;2022-08-25T06:43:15;18.35;;;5.15;;
51082;SDS011;37131;42.694;23.350;2022-08-25T06:45:41;14.07;;;4.78;;
51082;SDS011;37131;42.694;23.350;2022-08-25T06:48:08;9.90;;;5.00;;
51082;SDS011;37131;42.694;23.350;2022-08-25T06:50:36;13.15;;;4.90;;
51082;SDS011;37131;42.694;23.350;2022-08-25T06:53:03;17.67;;;5.45;;
51082;SDS011;37131;42.694;23.350;2022-08-25T06:55:29;19.90;;;6.00;;
51082;SDS011;37131;42.694;23.350;2022-08-25T06:57:55;22.58;;;5.70;;
51082;SDS011;37131;42.694;23.350;2022-08-25T07:00:20;18.10;;;6.25;;
51082;SDS011;37131;42.694;23.350;2022-08-25T07:02:47;23.13;;;5.63;;
51082;SDS011;37131;42.694;23.350;2022-08-25T07:05:12;19.35;;;5.13;;
51082;SDS011;37131;42.694;23.350;2022-08-25T07:07:38;12.68;;;4.28;;
51082;SDS011;37131;42.694;23.350;2022-08-25T07:10:03;20.60;;;5.07;;
51082;SDS011;37131;42.694;23.350;2022-08-25T07:12:29;14.23;;;5.40;;
51082;SDS011;37131;42.694;23.350;2022-08-25T07:14:55;20.10;;;5.35;;
51082;SDS011;37131;42.694;23.350;2022-08-25T07:17:21;18.70;;;4.55;;
51082;SDS011;37131;42.694;23.350;2022-08-25T07:19:47;21.95;;;5.93;;
51082;SDS011;37131;42.694;23.350;2022-08-25T07:22:13;19.70;;;5.18;;
51082;SDS011;37131;42.694;23.350;2022-08-25T07:24:39;10.32;;;3.78;;
51082;SDS011;37131;42.694;23.350;2022-08-25T07:27:04;19.27;;;4.60;;
51082;SDS011;37131;42.694;23.350;2022-08-25T07:29:30;15.73;;;4.90;;
51082;SDS011;37131;42.694;23.350;2022-08-25T07:31:57;19.30;;;4.47;;
51082;SDS011;37131;42.694;23.350;2022-08-25T07:34:23;19.98;;;4.43;;
51082;SDS011;37131;42.694;23.350;2022-08-25T07:39:33;17.15;;;4.50;;
51082;SDS011;37131;42.694;23.350;2022-08-25T07:41:59;12.20;;;4.22;;
51082;SDS011;37131;42.694;23.350;2022-08-25T07:44:25;19.85;;;4.45;;
51082;SDS011;37131;42.694;23.350;2022-08-25T07:46:51;15.10;;;4.18;;
51082;SDS011;37131;42.694;23.350;2022-08-25T07:49:18;19.63;;;5.35;;
51082;SDS011;37131;42.694;23.350;2022-08-25T07:51:45;18.45;;;4.80;;
51082;SDS011;37131;42.694;23.350;2022-08-25T07:54:10;15.55;;;5.03;;
51082;SDS011;37131;42.694;23.350;2022-08-25T07:56:36;15.63;;;4.60;;
51082;SDS011;37131;42.694;23.350;2022-08-25T07:59:02;12.88;;;3.80;;
51082;SDS011;37131;42.694;23.350;2022-08-25T08:01:27;23.15;;;5.03;;
51082;SDS011;37131;42.694;23.350;2022-08-25T08:03:53;18.52;;;3.83;;
51082;SDS011;37131;42.694;23.350;2022-08-25T08:06:19;20.98;;;4.30;;
51082;SDS011;37131;42.694;23.350;2022-08-25T08:08:48;15.00;;;4.10;;
51082;SDS011;37131;42.694;23.350;2022-08-25T08:11:16;15.38;;;4.38;;
51082;SDS011;37131;42.694;23.350;2022-08-25T08:13:47;18.98;;;4.72;;
51082;SDS011;37131;42.694;23.350;2022-08-25T08:16:14;15.82;;;4.13;;
51082;SDS011;37131;42.694;23.350;2022-08-25T08:18:41;21.38;;;5.40;;
51082;SDS011;37131;42.694;23.350;2022-08-25T08:21:15;22.73;;;4.80;;
51082;SDS011;37131;42.694;23.350;2022-08-25T08:23:45;19.58;;;3.90;;
51082;SDS011;37131;42.694;23.350;2022-08-25T08:26:12;22.35;;;4.70;;
51082;SDS011;37131;42.694;23.350;2022-08-25T08:28:38;19.95;;;4.30;;
51082;SDS011;37131;42.694;23.350;2022-08-25T08:31:03;19.00;;;4.10;;
51082;SDS011;37131;42.694;23.350;2022-08-25T08:33:29;19.02;;;4.63;;
51082;SDS011;37131;42.694;23.350;2022-08-25T08:36:03;16.58;;;3.65;;
51082;SDS011;37131;42.694;23.350;2022-08-25T08:38:34;10.90;;;3.40;;
51082;SDS011;37131;42.694;23.350;2022-08-25T08:43:54;12.73;;;3.75;;
51082;SDS011;37131;42.694;23.350;2022-08-25T08:46:32;18.38;;;3.85;;
51082;SDS011;37131;42.694;23.350;2022-08-25T08:49:05;24.63;;;4.63;;
51082;SDS011;37131;42.694;23.350;2022-08-25T08:52:09;17.88;;;3.63;;
51082;SDS011;37131;42.694;23.350;2022-08-25T08:54:40;26.17;;;4.15;;
51082;SDS011;37131;42.694;23.350;2022-08-25T08:57:12;24.05;;;4.90;;
51082;SDS011;37131;42.694;23.350;2022-08-25T08:59:53;29.98;;;4.97;;
51082;SDS011;37131;42.694;23.350;2022-08-25T09:05:03;17.95;;;3.97;;
51082;SDS011;37131;42.694;23.350;2022-08-25T09:07:35;15.45;;;3.72;;
51082;SDS011;37131;42.694;23.350;2022-08-25T09:10:06;18.63;;;3.70;;
51082;SDS011;37131;42.694;23.350;2022-08-25T09:12:43;16.42;;;3.47;;
51082;SDS011;37131;42.694;23.350;2022-08-25T09:15:32;20.85;;;3.63;;
51082;SDS011;37131;42.694;23.350;2022-08-25T09:21:08;20.05;;;3.17;;
51082;SDS011;37131;42.694;23.350;2022-08-25T09:29:56;32.17;;;4.50;;
51082;SDS011;37131;42.694;23.350;2022-08-25T09:32:33;20.33;;;4.10;;
51082;SDS011;37131;42.694;23.350;2022-08-25T09:35:03;29.20;;;4.60;;
51082;SDS011;37131;42.694;23.350;2022-08-25T09:37:30;22.08;;;3.85;;
51082;SDS011;37131;42.694;23.350;2022-08-25T09:39:55;23.17;;;3.25;;
51082;SDS011;37131;42.694;23.350;2022-08-25T09:42:21;25.85;;;4.10;;
51082;SDS011;37131;42.694;23.350;2022-08-25T09:44:46;26.48;;;3.65;;
51082;SDS011;37131;42.694;23.350;2022-08-25T09:49:59;16.40;;;3.35;;
51082;SDS011;37131;42.694;23.350;2022-08-25T09:52:38;33.13;;;4.72;;
51082;SDS011;37131;42.694;23.350;2022-08-25T10:00:15;24.67;;;3.50;;
51082;SDS011;37131;42.694;23.350;2022-08-25T10:03:07;27.25;;;4.47;;
51082;SDS011;37131;42.694;23.350;2022-08-25T10:05:38;24.17;;;3.85;;
51082;SDS011;37131;42.694;23.350;2022-08-25T10:08:12;24.08;;;3.78;;
51082;SDS011;37131;42.694;23.350;2022-08-25T10:10:51;21.90;;;4.00;;
51082;SDS011;37131;42.694;23.350;2022-08-25T10:13:19;17.58;;;3.22;;
51082;SDS011;37131;42.694;23.350;2022-08-25T10:15:45;12.77;;;2.70;;
51082;SDS011;37131;42.694;23.350;2022-08-25T10:18:30;23.08;;;3.22;;
51082;SDS011;37131;42.694;23.350;2022-08-25T10:21:11;17.73;;;3.00;;
51082;SDS011;37131;42.694;23.350;2022-08-25T10:23:44;29.73;;;4.57;;
51082;SDS011;37131;42.694;23.350;2022-08-25T10:26:15;20.20;;;3.08;;
51082;SDS011;37131;42.694;23.350;2022-08-25T10:31:35;33.83;;;4.68;;
51082;SDS011;37131;42.694;23.350;2022-08-25T10:34:13;19.55;;;2.97;;
51082;SDS011;37131;42.694;23.350;2022-08-25T10:39:29;28.02;;;3.88;;
51082;SDS011;37131;42.694;23.350;2022-08-25T10:42:03;24.80;;;3.42;;
51082;SDS011;37131;42.694;23.350;2022-08-25T10:50:45;36.40;;;4.35;;
51082;SDS011;37131;42.694;23.350;2022-08-25T10:58:44;17.20;;;3.13;;
51082;SDS011;37131;42.694;23.350;2022-08-25T11:04:13;25.35;;;3.88;;
51082;SDS011;37131;42.694;23.350;2022-08-25T11:06:51;17.20;;;3.60;;
51082;SDS011;37131;42.694;23.350;2022-08-25T11:09:24;24.42;;;3.22;;
51082;SDS011;37131;42.694;23.350;2022-08-25T11:11:58;16.52;;;2.63;;
51082;SDS011;37131;42.694;23.350;2022-08-25T11:27:17;25.60;;;4.18;;
51082;SDS011;37131;42.694;23.350;2022-08-25T11:29:52;15.98;;;2.65;;
51082;SDS011;37131;42.694;23.350;2022-08-25T11:32:26;13.50;;;2.42;;
51082;SDS011;37131;42.694;23.350;2022-08-25T11:34:57;18.08;;;2.65;;
51082;SDS011;37131;42.694;23.350;2022-08-25T11:37:26;23.33;;;2.88;;
51082;SDS011;37131;42.694;23.350;2022-08-25T11:42:35;22.33;;;3.85;;
51082;SDS011;37131;42.694;23.350;2022-08-25T11:56:01;14.15;;;2.50;;
51082;SDS011;37131;42.694;23.350;2022-08-25T11:58:37;15.57;;;2.22;;
51082;SDS011;37131;42.694;23.350;2022-08-25T12:01:04;17.30;;;3.00;;
51082;SDS011;37131;42.694;23.350;2022-08-25T12:08:47;17.45;;;2.80;;
51082;SDS011;37131;42.694;23.350;2022-08-25T12:11:54;19.50;;;3.35;;
51082;SDS011;37131;42.694;23.350;2022-08-25T12:21:47;16.20;;;2.80;;
51082;SDS011;37131;42.694;23.350;2022-08-25T12:24:14;14.57;;;2.50;;
51082;SDS011;37131;42.694;23.350;2022-08-25T12:26:56;11.52;;;2.03;;
51082;SDS011;37131;42.694;23.350;2022-08-25T12:37:24;19.00;;;2.97;;
51082;SDS011;37131;42.694;23.350;2022-08-25T12:45:13;9.57;;;2.10;;
51082;SDS011;37131;42.694;23.350;2022-08-25T12:47:39;22.77;;;3.15;;
51082;SDS011;37131;42.694;23.350;2022-08-25T12:52:53;18.20;;;3.00;;
51082;SDS011;37131;42.694;23.350;2022-08-25T12:55:23;15.07;;;2.65;;
51082;SDS011;37131;42.694;23.350;2022-08-25T12:57:51;14.02;;;2.63;;
51082;SDS011;37131;42.694;23.350;2022-08-25T13:00:24;19.48;;;3.40;;
51082;SDS011;37131;42.694;23.350;2022-08-25T13:03:00;19.33;;;3.10;;
51082;SDS011;37131;42.694;23.350;2022-08-25T13:10:51;11.95;;;2.05;;
51082;SDS011;37131;42.694;23.350;2022-08-25T13:16:18;11.48;;;1.98;;
51082;SDS011;37131;42.694;23.350;2022-08-25T13:18:49;22.67;;;3.75;;
51082;SDS011;37131;42.694;23.350;2022-08-25T13:23:54;20.35;;;3.00;;
51082;SDS011;37131;42.694;23.350;2022-08-25T13:26:25;10.48;;;2.47;;
51082;SDS011;37131;42.694;23.350;2022-08-25T13:29:01;7.50;;;2.03;;
51082;SDS011;37131;42.694;23.350;2022-08-25T13:31:33;21.60;;;3.60;;
51082;SDS011;37131;42.694;23.350;2022-08-25T13:34:01;16.17;;;3.00;;
51082;SDS011;37131;42.694;23.350;2022-08-25T13:36:29;10.73;;;2.30;;
51082;SDS011;37131;42.694;23.350;2022-08-25T13:39:20;19.10;;;2.65;;
51082;SDS011;37131;42.694;23.350;2022-08-25T13:41:54;18.70;;;2.55;;
51082;SDS011;37131;42.694;23.350;2022-08-25T13:44:23;9.52;;;2.30;;
51082;SDS011;37131;42.694;23.350;2022-08-25T13:49:31;17.13;;;2.97;;
51082;SDS011;37131;42.694;23.350;2022-08-25T13:51:57;27.85;;;4.25;;
51082;SDS011;37131;42.694;23.350;2022-08-25T13:54:26;19.08;;;3.25;;
51082;SDS011;37131;42.694;23.350;2022-08-25T13:57:02;12.80;;;1.95;;
51082;SDS011;37131;42.694;23.350;2022-08-25T13:59:36;14.85;;;2.53;;
51082;SDS011;37131;42.694;23.350;2022-08-25T14:02:05;18.02;;;3.20;;
51082;SDS011;37131;42.694;23.350;2022-08-25T14:09:54;12.20;;;2.28;;
51082;SDS011;37131;42.694;23.350;2022-08-25T14:12:28;18.17;;;3.20;;
51082;SDS011;37131;42.694;23.350;2022-08-25T14:17:44;18.67;;;2.83;;
51082;SDS011;37131;42.694;23.350;2022-08-25T14:20:17;9.00;;;2.00;;
51082;SDS011;37131;42.694;23.350;2022-08-25T14:22:50;25.52;;;3.67;;
51082;SDS011;37131;42.694;23.350;2022-08-25T14:25:22;14.93;;;2.67;;
51082;SDS011;37131;42.694;23.350;2022-08-25T14:27:56;13.88;;;2.65;;
51082;SDS011;37131;42.694;23.350;2022-08-25T14:30:23;19.30;;;3.10;;
51082;SDS011;37131;42.694;23.350;2022-08-25T14:32:48;32.67;;;4.45;;
51082;SDS011;37131;42.694;23.350;2022-08-25T14:35:14;10.38;;;2.47;;
51082;SDS011;37131;42.694;23.350;2022-08-25T14:37:41;22.60;;;3.30;;
51082;SDS011;37131;42.694;23.350;2022-08-25T14:40:07;19.40;;;2.70;;
51082;SDS011;37131;42.694;23.350;2022-08-25T14:42:33;18.33;;;2.75;;
51082;SDS011;37131;42.694;23.350;2022-08-25T14:44:58;27.92;;;4.32;;
51082;SDS011;37131;42.694;23.350;2022-08-25T14:47:24;20.80;;;3.42;;
51082;SDS011;37131;42.694;23.350;2022-08-25T14:49:49;11.07;;;2.13;;
51082;SDS011;37131;42.694;23.350;2022-08-25T14:52:19;17.48;;;2.63;;
51082;SDS011;37131;42.694;23.350;2022-08-25T14:54:50;13.13;;;2.38;;
51082;SDS011;37131;42.694;23.350;2022-08-25T14:57:16;18.40;;;3.17;;
51082;SDS011;37131;42.694;23.350;2022-08-25T14:59:42;27.00;;;3.45;;
51082;SDS011;37131;42.694;23.350;2022-08-25T15:02:08;15.82;;;3.03;;
51082;SDS011;37131;42.694;23.350;2022-08-25T15:04:37;15.73;;;2.50;;
51082;SDS011;37131;42.694;23.350;2022-08-25T15:07:02;16.27;;;2.75;;
51082;SDS011;37131;42.694;23.350;2022-08-25T15:09:48;14.55;;;2.58;;
51082;SDS011;37131;42.694;23.350;2022-08-25T15:12:13;25.33;;;3.83;;
51082;SDS011;37131;42.694;23.350;2022-08-25T15:14:39;12.20;;;2.60;;
51082;SDS011;37131;42.694;23.350;2022-08-25T15:17:04;16.45;;;2.70;;
51082;SDS011;37131;42.694;23.350;2022-08-25T15:19:32;16.58;;;3.40;;
51082;SDS011;37131;42.694;23.350;2022-08-25T15:21:58;23.70;;;3.15;;
51082;SDS011;37131;42.694;23.350;2022-08-25T15:24:24;19.75;;;3.00;;
51082;SDS011;37131;42.694;23.350;2022-08-25T15:26:55;18.45;;;2.75;;
51082;SDS011;37131;42.694;23.350;2022-08-25T15:29:22;17.63;;;3.38;;
51082;SDS011;37131;42.694;23.350;2022-08-25T15:31:50;24.77;;;3.97;;
51082;SDS011;37131;42.694;23.350;2022-08-25T15:34:15;17.33;;;3.47;;
51082;SDS011;37131;42.694;23.350;2022-08-25T15:36:41;26.63;;;4.00;;
51082;SDS011;37131;42.694;23.350;2022-08-25T15:39:07;14.75;;;2.83;;
51082;SDS011;37131;42.694;23.350;2022-08-25T15:41:33;19.25;;;3.00;;
51082;SDS011;37131;42.694;23.350;2022-08-25T15:44:00;26.30;;;3.58;;
51082;SDS011;37131;42.694;23.350;2022-08-25T15:46:27;23.10;;;4.10;;
51082;SDS011;37131;42.694;23.350;2022-08-25T15:48:54;9.40;;;2.13;;
51082;SDS011;37131;42.694;23.350;2022-08-25T15:51:21;17.42;;;2.92;;
51082;SDS011;37131;42.694;23.350;2022-08-25T15:53:46;16.17;;;2.38;;
51082;SDS011;37131;42.694;23.350;2022-08-25T15:56:12;19.92;;;2.95;;
51082;SDS011;37131;42.694;23.350;2022-08-25T15:58:41;17.35;;;2.95;;
51082;SDS011;37131;42.694;23.350;2022-08-25T16:01:10;16.27;;;3.00;;
51082;SDS011;37131;42.694;23.350;2022-08-25T16:03:54;25.70;;;4.03;;
51082;SDS011;37131;42.694;23.350;2022-08-25T16:06:21;11.65;;;2.30;;
51082;SDS011;37131;42.694;23.350;2022-08-25T16:08:48;16.88;;;3.20;;
51082;SDS011;37131;42.694;23.350;2022-08-25T16:11:17;14.35;;;2.75;;
51082;SDS011;37131;42.694;23.350;2022-08-25T16:13:48;18.25;;;3.00;;
51082;SDS011;37131;42.694;23.350;2022-08-25T16:16:15;15.38;;;2.67;;
51082;SDS011;37131;42.694;23.350;2022-08-25T16:18:41;9.75;;;2.50;;
51082;SDS011;37131;42.694;23.350;2022-08-25T16:21:11;29.55;;;4.22;;
51082;SDS011;37131;42.694;23.350;2022-08-25T16:23:41;15.18;;;2.88;;
51082;SDS011;37131;42.694;23.350;2022-08-25T16:26:08;19.08;;;3.35;;
51082;SDS011;37131;42.694;23.350;2022-08-25T16:28:34;16.38;;;2.75;;
51082;SDS011;37131;42.694;23.350;2022-08-25T16:31:01;21.10;;;3.97;;
51082;SDS011;37131;42.694;23.350;2022-08-25T16:33:27;18.30;;;3.00;;